createdAt,value
2019-05-03T00:01:52.721Z,99671.95
2019-05-03T00:04:17.194Z,99678.55
2019-05-03T00:06:43.938Z,99685.41
2019-05-03T00:09:11.936Z,99679.08
2019-05-03T00:11:37.451Z,99678.91
2019-05-03T00:14:04.198Z,99676.01
2019-05-03T00:16:32.526Z,99680.36
2019-05-03T00:19:00.930Z,99679.36
2019-05-03T00:21:25.362Z,99671.56
2019-05-03T00:23:52.342Z,99670.75
2019-05-03T00:26:18.847Z,99671.09
2019-05-03T00:28:45.609Z,99672.41
2019-05-03T00:31:12.591Z,99675.38
2019-05-03T00:33:39.082Z,99671.34
2019-05-03T00:36:26.096Z,99680.67
2019-05-03T00:38:54.394Z,99681.22
2019-05-03T00:41:21.559Z,99678.50
2019-05-03T00:43:47.859Z,99677.69
2019-05-03T00:46:14.709Z,99682.11
2019-05-03T00:48:42.996Z,99682.92
2019-05-03T00:51:08.181Z,99682.28
2019-05-03T00:53:34.927Z,99678.04
2019-05-03T00:56:01.831Z,99681.93
2019-05-03T00:58:28.382Z,99681.61
2019-05-03T01:00:55.110Z,99690.27
2019-05-03T01:03:22.009Z,99682.59
2019-05-03T01:05:48.589Z,99678.22
2019-05-03T01:08:15.340Z,99679.20
2019-05-03T01:10:42.195Z,99674.47
2019-05-03T01:13:08.808Z,99675.13
2019-05-03T01:15:45.856Z,99681.96
2019-05-03T01:18:12.597Z,99686.03
2019-05-03T01:20:39.322Z,99683.57
2019-05-03T01:23:06.069Z,99681.95
2019-05-03T01:25:35.425Z,99685.20
2019-05-03T01:28:01.450Z,99681.31
2019-05-03T01:30:26.274Z,99684.89
2019-05-03T01:32:53.009Z,99680.48
2019-05-03T01:35:21.978Z,99685.20
2019-05-03T01:37:47.511Z,99681.80
2019-05-03T01:40:14.238Z,99682.77
2019-05-03T01:42:42.611Z,99680.99
2019-05-03T01:45:08.110Z,99681.31
2019-05-03T01:47:41.952Z,99683.58
2019-05-03T01:50:16.669Z,99685.34
2019-05-03T01:52:43.514Z,99681.46
2019-05-03T01:55:13.918Z,99683.58
2019-05-03T01:57:36.981Z,99689.11
2019-05-03T02:00:04.728Z,99684.07
2019-05-03T02:02:52.560Z,99682.84
2019-05-03T02:05:34.186Z,99682.54
2019-05-03T02:08:02.117Z,99682.06
2019-05-03T02:10:27.651Z,99685.52
2019-05-03T02:12:54.405Z,99690.69
2019-05-03T02:15:22.098Z,99689.02
2019-05-03T02:17:47.854Z,99699.52
2019-05-03T02:20:14.605Z,99699.52
2019-05-03T02:22:42.765Z,99700.84
2019-05-03T02:25:08.070Z,99699.51
2019-05-03T02:27:34.786Z,99703.91
2019-05-03T02:30:03.099Z,99706.38
2019-05-03T02:32:28.252Z,99714.02
2019-05-03T02:34:54.980Z,99707.66
2019-05-03T02:37:22.502Z,99713.03
2019-05-03T02:39:53.028Z,99716.14
2019-05-03T02:42:17.371Z,99710.11
2019-05-03T02:44:46.181Z,99706.50
2019-05-03T02:47:23.099Z,99704.09
2019-05-03T02:49:58.674Z,99709.59
2019-05-03T02:52:31.252Z,99705.35
2019-05-03T02:54:58.022Z,99710.09
2019-05-03T02:57:25.904Z,99705.35
2019-05-03T02:59:51.494Z,99706.52
2019-05-03T03:02:18.219Z,99703.90
2019-05-03T03:04:45.430Z,99700.29
2019-05-03T03:07:11.705Z,99702.43
2019-05-03T03:09:38.426Z,99701.13
2019-05-03T03:12:06.136Z,99701.14
2019-05-03T03:14:31.877Z,99702.43
2019-05-03T03:16:58.615Z,99704.73
2019-05-03T03:19:26.412Z,99703.75
2019-05-03T03:21:56.169Z,99704.18
2019-05-03T03:24:20.959Z,99712.20
2019-05-03T03:26:47.706Z,99713.84
2019-05-03T03:29:16.073Z,99713.53
2019-05-03T03:32:09.618Z,99715.80
2019-05-03T03:34:38.779Z,99718.90
2019-05-03T03:37:06.585Z,99720.02
2019-05-03T03:39:28.904Z,99722.95
2019-05-03T03:41:55.954Z,99721.84
2019-05-03T03:44:22.362Z,99725.72
2019-05-03T03:46:49.102Z,99728.81
2019-05-03T03:49:15.883Z,99724.75
2019-05-03T03:51:42.599Z,99725.08
2019-05-03T03:54:09.345Z,99727.67
2019-05-03T03:56:53.772Z,99730.80
2019-05-03T03:59:02.800Z,99731.11
2019-05-03T04:01:29.511Z,99737.62
2019-05-03T04:03:56.303Z,99741.84
2019-05-03T04:06:26.926Z,99732.92
2019-05-03T04:08:52.422Z,99733.97
2019-05-03T04:11:19.178Z,99733.73
2019-05-03T04:13:45.916Z,99746.69
2019-05-03T04:16:36.258Z,99761.05
2019-05-03T04:19:06.010Z,99763.01
2019-05-03T04:21:32.643Z,99762.78
2019-05-03T04:23:59.369Z,99759.85
2019-05-03T04:26:29.477Z,99758.16
2019-05-03T04:28:55.943Z,99766.11
2019-05-03T04:31:20.131Z,99768.66
2019-05-03T04:33:46.866Z,99770.98
2019-05-03T04:36:15.875Z,99773.75
2019-05-03T04:38:40.328Z,99770.34
2019-05-03T04:41:07.050Z,99777.81
2019-05-03T04:43:35.651Z,99778.15
2019-05-03T04:46:06.669Z,99779.77
2019-05-03T04:48:30.166Z,99784.80
2019-05-03T04:50:56.887Z,99793.09
2019-05-03T04:53:25.812Z,99787.67
2019-05-03T04:55:50.364Z,99795.53
2019-05-03T04:58:17.111Z,99795.04
2019-05-03T05:00:46.421Z,99797.97
2019-05-03T05:03:10.659Z,99808.15
2019-05-03T05:05:37.385Z,99804.02
2019-05-03T05:08:05.937Z,99805.33
2019-05-03T05:10:30.858Z,99814.44
2019-05-03T05:12:57.583Z,99814.92
2019-05-03T05:15:26.394Z,99819.95
2019-05-03T05:18:16.087Z,99818.63
2019-05-03T05:20:45.863Z,99824.83
2019-05-03T05:23:14.680Z,99823.41
2019-05-03T05:25:44.520Z,99824.17
2019-05-03T05:28:20.006Z,99827.43
2019-05-03T05:30:46.729Z,99828.85
2019-05-03T05:33:19.310Z,99825.48
2019-05-03T05:35:46.026Z,99828.63
2019-05-03T05:38:14.917Z,99832.20
2019-05-03T05:40:39.554Z,99831.73
2019-05-03T05:43:06.299Z,99833.36
2019-05-03T05:45:34.794Z,99839.27
2019-05-03T05:48:05.171Z,99838.45
2019-05-03T05:50:34.506Z,99836.87
2019-05-03T05:52:59.606Z,99848.75
2019-05-03T05:55:46.950Z,99846.14
2019-05-03T05:58:17.532Z,99850.73
2019-05-03T06:00:50.325Z,99864.27
2019-05-03T06:03:17.085Z,99865.22
2019-05-03T06:05:44.701Z,99872.05
2019-05-03T06:08:18.606Z,99866.84
2019-05-03T06:10:52.034Z,99871.41
2019-05-03T06:13:24.178Z,99871.75
2019-05-03T06:16:12.690Z,99870.78
2019-05-03T06:18:45.293Z,99875.63
2019-05-03T06:21:18.162Z,99878.53
2019-05-03T06:23:50.610Z,99880.97
2019-05-03T06:26:24.917Z,99883.48
2019-05-03T06:28:50.038Z,99882.50
2019-05-03T06:31:22.782Z,99877.05
2019-05-03T06:33:48.469Z,99880.25
2019-05-03T06:36:15.361Z,99883.02
2019-05-03T06:38:42.313Z,99883.80
2019-05-03T06:41:08.666Z,99888.55
2019-05-03T06:43:39.595Z,99893.90
2019-05-03T06:46:02.182Z,99898.54
2019-05-03T06:48:31.960Z,99890.06
2019-05-03T06:53:34.890Z,99899.63
2019-05-03T06:56:01.635Z,99892.34
2019-05-03T06:58:33.507Z,99899.83
2019-05-03T07:01:00.038Z,99900.11
2019-05-03T07:03:38.644Z,99902.55
2019-05-03T07:06:11.046Z,99908.13
2019-05-03T07:08:52.046Z,99912.70
2019-05-03T07:11:18.790Z,99911.52
2019-05-03T07:13:45.510Z,99909.30
2019-05-03T07:16:12.266Z,99917.61
2019-05-03T07:18:38.997Z,99917.21
2019-05-03T07:21:05.715Z,99920.50
2019-05-03T07:23:32.430Z,99917.53
2019-05-03T07:25:59.234Z,99916.40
2019-05-03T07:28:25.967Z,99913.22
2019-05-03T07:30:54.378Z,99905.30
2019-05-03T07:33:25.942Z,99898.80
2019-05-03T07:35:54.692Z,99892.90
2019-05-03T07:38:19.402Z,99898.55
2019-05-03T07:40:46.138Z,99887.06
2019-05-03T07:43:14.751Z,99886.25
2019-05-03T07:45:39.635Z,99902.17
2019-05-03T07:48:06.362Z,99894.86
2019-05-03T07:50:33.366Z,99890.48
2019-05-03T07:52:59.850Z,99895.42
2019-05-03T07:55:32.323Z,99879.70
2019-05-03T07:57:59.119Z,99878.30
2019-05-03T08:00:25.878Z,99889.88
2019-05-03T08:02:52.622Z,99885.34
2019-05-03T08:05:19.379Z,99891.09
2019-05-03T08:07:46.322Z,99893.59
2019-05-03T08:10:15.188Z,99896.21
2019-05-03T08:12:39.566Z,99901.61
2019-05-03T08:15:06.291Z,99901.48
2019-05-03T08:17:34.890Z,99894.25
2019-05-03T08:20:01.741Z,99889.89
2019-05-03T08:22:28.475Z,99872.86
2019-05-03T08:24:55.680Z,99881.23
2019-05-03T08:27:21.935Z,99894.56
2019-05-03T08:29:48.699Z,99902.95
2019-05-03T08:32:26.562Z,99904.98
2019-05-03T08:34:59.094Z,99910.59
2019-05-03T08:37:31.750Z,99908.66
2019-05-03T08:39:58.477Z,99914.08
2019-05-03T08:42:25.537Z,99918.61
2019-05-03T08:44:52.064Z,99910.16
2019-05-03T08:47:18.815Z,99907.31
2019-05-03T08:49:45.554Z,99918.05
2019-05-03T08:52:12.330Z,99916.69
2019-05-03T08:54:39.058Z,99921.16
2019-05-03T08:57:06.344Z,99907.84
2019-05-03T08:59:32.946Z,99910.01
2019-05-03T09:02:04.540Z,99912.11
2019-05-03T09:04:36.026Z,99919.16
2019-05-03T09:06:54.878Z,99909.53
2019-05-03T09:09:25.441Z,99908.30
2019-05-03T09:11:51.587Z,99907.38
2019-05-03T09:14:18.318Z,99912.67
2019-05-03T09:16:45.106Z,99906.83
2019-05-03T09:19:11.850Z,99905.73
2019-05-03T09:21:38.606Z,99910.69
2019-05-03T09:24:05.364Z,99913.09
2019-05-03T09:26:32.110Z,99899.43
2019-05-03T09:28:58.856Z,99892.86
2019-05-03T09:31:25.587Z,99877.58
2019-05-03T09:33:54.562Z,99887.41
2019-05-03T09:36:19.146Z,99883.54
2019-05-03T09:38:46.005Z,99887.06
2019-05-03T09:41:14.851Z,99887.06
2019-05-03T09:43:39.390Z,99889.75
2019-05-03T09:46:06.121Z,99882.77
2019-05-03T09:48:34.675Z,99889.44
2019-05-03T09:50:59.790Z,99878.46
2019-05-03T09:53:27.542Z,99875.36
2019-05-03T09:55:55.500Z,99871.61
2019-05-03T09:58:21.039Z,99857.14
2019-05-03T10:00:47.774Z,99867.22
2019-05-03T10:03:14.616Z,99849.03
2019-05-03T10:05:41.389Z,99855.14
2019-05-03T10:08:08.234Z,99863.96
2019-05-03T10:10:40.772Z,99863.16
2019-05-03T10:13:14.421Z,99855.55
2019-05-03T10:15:38.446Z,99852.97
2019-05-03T10:18:10.307Z,99849.14
2019-05-03T10:20:31.972Z,99854.14
2019-05-03T10:23:05.188Z,99863.11
2019-05-03T10:25:30.638Z,99845.66
2019-05-03T10:27:57.419Z,99852.41
2019-05-03T10:30:25.705Z,99853.22
2019-05-03T10:32:56.476Z,99854.30
2019-05-03T10:35:24.591Z,99829.91
2019-05-03T10:37:50.079Z,99809.25
2019-05-03T10:40:24.344Z,99815.39
2019-05-03T10:42:50.406Z,99808.47
2019-05-03T10:45:17.154Z,99808.74
2019-05-03T10:47:45.664Z,99811.13
2019-05-03T10:50:10.662Z,99799.78
2019-05-03T10:52:41.028Z,99795.54
2019-05-03T10:55:07.770Z,99801.16
2019-05-03T10:57:35.564Z,99793.33
2019-05-03T11:00:02.062Z,99806.62
2019-05-03T11:02:36.111Z,99817.75
2019-05-03T11:05:01.443Z,99805.14
2019-05-03T11:07:28.277Z,99811.71
2019-05-03T11:09:55.248Z,99818.91
2019-05-03T11:12:21.790Z,99832.36
2019-05-03T11:14:48.543Z,99824.06
2019-05-03T11:17:15.326Z,99825.45
2019-05-03T11:19:42.179Z,99825.59
2019-05-03T11:22:08.894Z,99828.20
2019-05-03T11:24:35.868Z,99823.30
2019-05-03T11:27:04.110Z,99810.87
2019-05-03T11:29:30.892Z,99818.78
2019-05-03T11:32:08.329Z,99814.12
2019-05-03T11:34:35.473Z,99807.16
2019-05-03T11:37:22.051Z,99801.83
2019-05-03T11:39:48.801Z,99803.03
2019-05-03T11:42:18.401Z,99801.28
2019-05-03T11:44:44.537Z,99799.74
2019-05-03T11:47:09.048Z,99802.63
2019-05-03T11:49:35.803Z,99813.22
2019-05-03T11:52:02.555Z,99807.47
2019-05-03T11:54:29.311Z,99809.50
2019-05-03T11:56:56.155Z,99819.85
2019-05-03T11:59:22.902Z,99816.13
2019-05-03T12:01:58.063Z,99809.95
2019-05-03T12:04:25.056Z,99811.27
2019-05-03T12:06:52.402Z,99807.82
2019-05-03T12:09:19.190Z,99817.36
2019-05-03T12:11:45.932Z,99812.67
2019-05-03T12:14:15.212Z,99825.56
2019-05-03T12:17:12.021Z,99827.02
2019-05-03T12:19:16.826Z,99838.66
2019-05-03T12:21:36.967Z,99835.34
2019-05-03T12:24:01.762Z,99834.40
2019-05-03T12:26:40.575Z,99829.42
2019-05-03T12:28:54.578Z,99817.39
2019-05-03T12:31:33.423Z,99816.90
2019-05-03T12:33:48.043Z,99805.37
2019-05-03T12:36:15.522Z,99813.31
2019-05-03T12:38:41.752Z,99799.97
2019-05-03T12:41:08.495Z,99803.07
2019-05-03T12:43:35.282Z,99799.05
2019-05-03T12:46:01.995Z,99817.33
2019-05-03T12:48:28.730Z,99808.39
2019-05-03T12:50:55.878Z,99805.16
2019-05-03T12:53:22.220Z,99823.88
2019-05-03T12:55:50.000Z,99822.56
2019-05-03T12:58:16.739Z,99817.33
2019-05-03T13:01:04.939Z,99804.48
2019-05-03T13:03:35.660Z,99805.50
2019-05-03T13:06:05.276Z,99798.34
2019-05-03T13:08:35.575Z,99791.66
2019-05-03T13:11:02.231Z,99795.58
2019-05-03T13:13:28.970Z,99802.86
2019-05-03T13:15:55.715Z,99799.64
2019-05-03T13:18:22.442Z,99799.08
2019-05-03T13:20:49.186Z,99800.22
2019-05-03T13:23:15.954Z,99808.33
2019-05-03T13:25:44.609Z,99810.84
2019-05-03T13:28:09.426Z,99815.68
2019-05-03T13:30:36.207Z,99814.09
2019-05-03T13:33:02.930Z,99823.16
2019-05-03T13:35:29.667Z,99826.13
2019-05-03T13:37:56.407Z,99824.13
2019-05-03T13:40:24.977Z,99831.31
2019-05-03T13:42:57.644Z,99837.89
2019-05-03T13:45:16.614Z,99837.39
2019-05-03T13:47:44.712Z,99843.03
2019-05-03T13:50:10.114Z,99843.28
2019-05-03T13:52:37.895Z,99823.09
2019-05-03T13:55:05.382Z,99808.91
2019-05-03T13:57:31.387Z,99804.77
2019-05-03T13:59:58.210Z,99804.80
2019-05-03T14:02:25.042Z,99800.94
2019-05-03T14:04:52.919Z,99793.42
2019-05-03T14:07:18.522Z,99789.91
2019-05-03T14:09:45.394Z,99778.52
2019-05-03T14:12:11.987Z,99770.55
2019-05-03T14:14:45.382Z,99766.26
2019-05-03T14:17:11.243Z,99764.29
2019-05-03T14:19:38.094Z,99768.32
2019-05-03T14:22:05.487Z,99764.13
2019-05-03T14:24:32.231Z,99755.93
2019-05-03T14:26:58.966Z,99759.98
2019-05-03T14:29:25.718Z,99744.25
2019-05-03T14:31:54.423Z,99745.76
2019-05-03T14:34:19.204Z,99746.31
2019-05-03T14:36:45.954Z,99734.70
2019-05-03T14:39:14.858Z,99740.30
2019-05-03T14:41:39.427Z,99736.58
2019-05-03T14:44:06.147Z,99739.39
2019-05-03T14:46:34.160Z,99747.02
2019-05-03T14:48:59.663Z,99745.89
2019-05-03T14:51:26.518Z,99748.17
2019-05-03T14:53:54.266Z,99738.19
2019-05-03T14:56:25.408Z,99739.93
2019-05-03T14:59:11.706Z,99729.09
2019-05-03T15:01:44.259Z,99720.47
2019-05-03T15:04:11.008Z,99714.08
2019-05-03T15:06:37.719Z,99720.27
2019-05-03T15:09:05.453Z,99724.77
2019-05-03T15:11:32.058Z,99724.88
2019-05-03T15:13:58.790Z,99731.00
2019-05-03T15:16:25.518Z,99732.10
2019-05-03T15:18:52.297Z,99725.95
2019-05-03T15:21:19.006Z,99730.71
2019-05-03T15:23:45.754Z,99726.45
2019-05-03T15:26:12.525Z,99731.38
2019-05-03T15:28:40.265Z,99728.34
2019-05-03T15:31:06.990Z,99730.90
2019-05-03T15:33:35.337Z,99726.76
2019-05-03T15:36:00.503Z,99720.56
2019-05-03T15:38:27.327Z,99719.65
2019-05-03T15:40:54.748Z,99718.13
2019-05-03T15:43:28.556Z,99716.62
2019-05-03T15:46:05.557Z,99709.68
2019-05-03T15:48:36.581Z,99715.04
2019-05-03T15:51:04.769Z,99713.58
2019-05-03T15:53:30.118Z,99713.61
2019-05-03T15:55:56.934Z,99709.50
2019-05-03T15:58:24.872Z,99705.98
2019-05-03T16:00:50.602Z,99710.72
2019-05-03T16:03:17.371Z,99720.66
2019-05-03T16:05:44.749Z,99722.12
2019-05-03T16:08:10.846Z,99725.91
2019-05-03T16:10:37.666Z,99723.03
2019-05-03T16:13:04.841Z,99725.89
2019-05-03T16:15:31.163Z,99721.47
2019-05-03T16:17:57.914Z,99737.32
2019-05-03T16:20:25.242Z,99728.69
2019-05-03T16:22:51.628Z,99737.95
2019-05-03T16:25:18.415Z,99753.47
2019-05-03T16:27:51.842Z,99741.48
2019-05-03T16:30:36.396Z,99744.84
2019-05-03T16:33:01.278Z,99748.24
2019-05-03T16:35:28.029Z,99767.95
2019-05-03T16:37:54.750Z,99770.89
2019-05-03T16:40:21.493Z,99749.87
2019-05-03T16:42:48.234Z,99734.94
2019-05-03T16:45:17.030Z,99743.08
2019-05-03T16:47:41.918Z,99744.83
2019-05-03T16:50:08.672Z,99734.58
2019-05-03T16:52:35.515Z,99731.75
2019-05-03T16:55:02.358Z,99735.64
2019-05-03T16:57:29.112Z,99730.32
2019-05-03T16:59:55.870Z,99729.92
2019-05-03T17:02:24.514Z,99726.33
2019-05-03T17:04:55.679Z,99728.60
2019-05-03T17:07:31.050Z,99734.91
2019-05-03T17:10:01.950Z,99730.88
2019-05-03T17:12:29.654Z,99722.84
2019-05-03T17:14:56.983Z,99716.98
2019-05-03T17:17:25.114Z,99710.52
2019-05-03T17:19:49.913Z,99705.19
2019-05-03T17:22:17.337Z,99707.78
2019-05-03T17:24:44.445Z,99701.99
2019-05-03T17:27:10.241Z,99696.51
2019-05-03T17:29:36.994Z,99704.52
2019-05-03T17:32:04.931Z,99703.00
2019-05-03T17:34:30.502Z,99695.95
2019-05-03T17:36:57.217Z,99684.49
2019-05-03T17:39:29.624Z,99684.59
2019-05-03T17:42:06.757Z,99694.89
2019-05-03T17:44:39.111Z,99700.68
2019-05-03T17:47:05.835Z,99707.65
2019-05-03T17:49:32.569Z,99713.71
2019-05-03T17:52:19.730Z,99709.95
2019-05-03T17:55:06.123Z,99716.38
2019-05-03T17:57:50.831Z,99716.31
2019-05-03T18:00:23.357Z,99709.75
2019-05-03T18:02:50.110Z,99701.30
2019-05-03T18:05:22.671Z,99713.00
2019-05-03T18:08:09.009Z,99709.55
2019-05-03T18:10:36.717Z,99717.64
2019-05-03T18:13:03.447Z,99724.84
2019-05-03T18:15:30.183Z,99727.52
2019-05-03T18:17:56.919Z,99735.58
2019-05-03T18:20:25.461Z,99729.52
2019-05-03T18:22:50.378Z,99732.05
2019-05-03T18:25:17.141Z,99727.47
2019-05-03T18:27:44.581Z,99732.01
2019-05-03T18:30:10.611Z,99740.25
2019-05-03T18:32:37.347Z,99739.54
2019-05-03T18:35:51.022Z,99745.69
2019-05-03T18:38:17.749Z,99740.47
2019-05-03T18:40:44.859Z,99750.86
2019-05-03T18:43:15.314Z,99752.83
2019-05-03T18:45:55.126Z,99759.98
2019-05-03T18:48:24.457Z,99748.30
2019-05-03T18:50:48.624Z,99759.69
2019-05-03T18:53:15.354Z,99756.11
2019-05-03T18:55:42.102Z,99757.91
2019-05-03T18:58:08.840Z,99756.17
2019-05-03T19:00:35.586Z,99755.56
2019-05-03T19:03:02.327Z,99755.33
2019-05-03T19:05:29.110Z,99757.16
2019-05-03T19:08:00.811Z,99768.12
2019-05-03T19:10:47.110Z,99771.63
2019-05-03T19:13:20.019Z,99773.10
2019-05-03T19:15:46.774Z,99770.80
2019-05-03T19:18:25.993Z,99765.00
2019-05-03T19:20:52.730Z,99771.69
2019-05-03T19:23:19.466Z,99763.88
2019-05-03T19:25:49.440Z,99776.69
2019-05-03T19:28:13.030Z,99780.01
2019-05-03T19:30:39.776Z,99777.41
2019-05-03T19:33:06.498Z,99777.84
2019-05-03T19:35:33.222Z,99779.34
2019-05-03T19:37:59.988Z,99781.84
2019-05-03T19:40:26.737Z,99774.02
2019-05-03T19:42:55.164Z,99781.02
2019-05-03T19:45:20.210Z,99773.41
2019-05-03T19:47:46.951Z,99781.73
2019-05-03T19:50:15.515Z,99780.45
2019-05-03T19:52:46.359Z,99776.87
2019-05-03T19:55:13.102Z,99780.28
2019-05-03T19:57:39.814Z,99768.98
2019-05-03T20:00:06.634Z,99770.80
2019-05-03T20:02:45.284Z,99777.80
2019-05-03T20:05:18.134Z,99770.48
2019-05-03T20:08:05.146Z,99763.15
2019-05-03T20:10:30.350Z,99772.45
2019-05-03T20:12:57.069Z,99767.34
2019-05-03T20:15:23.814Z,99767.21
2019-05-03T20:17:59.300Z,99768.21
2019-05-03T20:20:17.322Z,99764.75
2019-05-03T20:22:45.447Z,99761.05
2019-05-03T20:25:10.784Z,99765.54
2019-05-03T20:27:37.507Z,99762.15
2019-05-03T20:30:05.772Z,99761.67
2019-05-03T20:32:31.447Z,99756.77
2019-05-03T20:35:10.181Z,99762.70
2019-05-03T20:37:25.176Z,99764.16
2019-05-03T20:39:51.737Z,99761.55
2019-05-03T20:42:38.874Z,99754.84
2019-05-03T20:45:07.753Z,99760.66
2019-05-03T20:47:40.314Z,99758.28
2019-05-03T20:50:12.862Z,99753.58
2019-05-03T20:52:39.590Z,99755.53
2019-05-03T20:55:06.330Z,99751.93
2019-05-03T20:57:33.063Z,99751.77
2019-05-03T20:59:59.802Z,99749.98
2019-05-03T21:02:26.522Z,99754.20
2019-05-03T21:04:54.649Z,99749.64
2019-05-03T21:07:20.060Z,99755.86
2019-05-03T21:09:46.785Z,99758.94
2019-05-03T21:12:14.918Z,99751.77
2019-05-03T21:14:40.238Z,99748.86
2019-05-03T21:17:27.677Z,99752.91
2019-05-03T21:20:00.929Z,99754.56
2019-05-03T21:22:31.849Z,99759.11
2019-05-03T21:25:03.124Z,99751.94
2019-05-03T21:27:29.838Z,99742.59
2019-05-03T21:29:56.569Z,99745.09
2019-05-03T21:32:25.066Z,99748.70
2019-05-03T21:34:50.093Z,99756.48
2019-05-03T21:37:16.824Z,99757.80
2019-05-03T21:39:45.310Z,99753.86
2019-05-03T21:42:10.310Z,99748.98
2019-05-03T21:44:37.029Z,99750.42
2019-05-03T21:47:11.382Z,99746.61
2019-05-03T21:49:41.139Z,99744.45
2019-05-03T21:52:07.878Z,99753.72
2019-05-03T21:54:34.750Z,99741.15
2019-05-03T21:57:01.398Z,99743.36
2019-05-03T21:59:28.102Z,99750.25
2019-05-03T22:01:54.840Z,99755.38
2019-05-03T22:04:21.574Z,99744.37
2019-05-03T22:06:48.302Z,99739.78
2019-05-03T22:09:15.017Z,99746.11
2019-05-03T22:11:41.760Z,99752.52
2019-05-03T22:14:12.235Z,99738.55
2019-05-03T22:16:46.367Z,99735.66
2019-05-03T22:19:16.285Z,99740.75
2019-05-03T22:21:45.283Z,99734.74
2019-05-03T22:24:25.145Z,99731.72
2019-05-03T22:26:53.389Z,99726.53
2019-05-03T22:29:20.122Z,99721.34
2019-05-03T22:31:46.858Z,99717.42
2019-05-03T22:34:15.132Z,99716.64
2019-05-03T22:36:44.411Z,99714.02
2019-05-03T22:39:09.528Z,99712.37
2019-05-03T22:41:36.269Z,99713.19
2019-05-03T22:44:02.995Z,99701.44
2019-05-03T22:46:29.742Z,99695.69
2019-05-03T22:48:56.597Z,99695.77
2019-05-03T22:51:24.451Z,99680.22
2019-05-03T22:53:50.058Z,99686.63
2019-05-03T22:56:16.791Z,99689.75
2019-05-03T22:58:45.634Z,99690.09
2019-05-03T23:01:10.325Z,99688.30
2019-05-03T23:03:41.951Z,99687.16
2019-05-03T23:06:19.504Z,99682.29
2019-05-03T23:08:35.537Z,99681.63
2019-05-03T23:11:02.302Z,99680.30
2019-05-03T23:13:29.014Z,99674.80
2019-05-03T23:15:55.734Z,99675.89
2019-05-03T23:18:24.505Z,99664.05
2019-05-03T23:20:55.895Z,99658.85
2019-05-03T23:23:28.331Z,99650.98
2019-05-03T23:25:55.170Z,99646.33
2019-05-03T23:28:21.882Z,99646.02
2019-05-03T23:30:48.639Z,99642.66
2019-05-03T23:33:15.380Z,99642.36
2019-05-03T23:35:42.090Z,99642.87
2019-05-03T23:38:08.882Z,99644.80
2019-05-03T23:40:35.612Z,99630.17
2019-05-03T23:43:02.345Z,99632.27
2019-05-03T23:45:29.074Z,99625.95
2019-05-03T23:47:55.814Z,99633.64
2019-05-03T23:50:22.550Z,99632.98
2019-05-03T23:52:49.301Z,99629.36
2019-05-03T23:55:25.116Z,99626.33
2019-05-03T23:57:49.797Z,99622.58
